sensor_id;sensor_type;location;lat;lon;timestamp;P1;P2;P0
72329;PMS5003;69154;52.076;5.110;2023-08-06T00:02:18;15;14;
72329;PMS5003;69154;52.076;5.110;2023-08-06T00:04:43;21;19;
72329;PMS5003;69154;52.076;5.110;2023-08-06T00:07:08;16;15;
72329;PMS5003;69154;52.076;5.110;2023-08-06T00:09:34;18;17;
72329;PMS5003;69154;52.076;5.110;2023-08-06T00:11:59;18;18;
72329;PMS5003;69154;52.076;5.110;2023-08-06T00:14:24;18;18;
72329;PMS5003;69154;52.076;5.110;2023-08-06T00:16:49;24;22;
72329;PMS5003;69154;52.076;5.110;2023-08-06T00:19:15;15;14;
72329;PMS5003;69154;52.076;5.110;2023-08-06T00:21:40;19;17;
72329;PMS5003;69154;52.076;5.110;2023-08-06T00:24:05;24;23;
72329;PMS5003;69154;52.076;5.110;2023-08-06T00:26:30;20;18;
72329;PMS5003;69154;52.076;5.110;2023-08-06T00:28:55;20;20;
72329;PMS5003;69154;52.076;5.110;2023-08-06T00:31:21;22;19;
72329;PMS5003;69154;52.076;5.110;2023-08-06T00:33:46;18;17;
72329;PMS5003;69154;52.076;5.110;2023-08-06T00:36:12;16;16;
72329;PMS5003;69154;52.076;5.110;2023-08-06T00:38:39;19;17;
72329;PMS5003;69154;52.076;5.110;2023-08-06T00:41:03;16;15;
72329;PMS5003;69154;52.076;5.110;2023-08-06T00:43:27;15;14;
72329;PMS5003;69154;52.076;5.110;2023-08-06T00:45:54;16;15;
72329;PMS5003;69154;52.076;5.110;2023-08-06T00:48:17;18;17;
72329;PMS5003;69154;52.076;5.110;2023-08-06T00:50:44;17;16;
72329;PMS5003;69154;52.076;5.110;2023-08-06T00:53:08;18;16;
72329;PMS5003;69154;52.076;5.110;2023-08-06T00:55:33;17;14;
72329;PMS5003;69154;52.076;5.110;2023-08-06T00:57:59;16;16;
72329;PMS5003;69154;52.076;5.110;2023-08-06T01:00:24;16;15;
72329;PMS5003;69154;52.076;5.110;2023-08-06T01:02:49;17;16;
72329;PMS5003;69154;52.076;5.110;2023-08-06T01:05:14;22;22;
72329;PMS5003;69154;52.076;5.110;2023-08-06T01:07:43;18;17;
72329;PMS5003;69154;52.076;5.110;2023-08-06T01:10:12;18;17;
72329;PMS5003;69154;52.076;5.110;2023-08-06T01:12:33;17;17;
72329;PMS5003;69154;52.076;5.110;2023-08-06T01:14:57;15;15;
72329;PMS5003;69154;52.076;5.110;2023-08-06T01:17:21;17;16;
72329;PMS5003;69154;52.076;5.110;2023-08-06T01:19:46;17;16;
72329;PMS5003;69154;52.076;5.110;2023-08-06T01:22:12;17;17;
72329;PMS5003;69154;52.076;5.110;2023-08-06T01:24:37;16;16;
72329;PMS5003;69154;52.076;5.110;2023-08-06T01:27:03;14;14;
72329;PMS5003;69154;52.076;5.110;2023-08-06T01:29:28;21;20;
72329;PMS5003;69154;52.076;5.110;2023-08-06T01:31:53;21;21;
72329;PMS5003;69154;52.076;5.110;2023-08-06T01:34:20;21;18;
72329;PMS5003;69154;52.076;5.110;2023-08-06T01:36:49;17;16;
72329;PMS5003;69154;52.076;5.110;2023-08-06T01:39:10;19;19;
72329;PMS5003;69154;52.076;5.110;2023-08-06T01:41:34;16;14;
72329;PMS5003;69154;52.076;5.110;2023-08-06T01:43:59;19;17;
72329;PMS5003;69154;52.076;5.110;2023-08-06T01:46:25;16;15;
72329;PMS5003;69154;52.076;5.110;2023-08-06T01:48:50;16;16;
72329;PMS5003;69154;52.076;5.110;2023-08-06T01:51:15;18;15;
72329;PMS5003;69154;52.076;5.110;2023-08-06T01:53:45;16;16;
72329;PMS5003;69154;52.076;5.110;2023-08-06T01:56:05;16;15;
72329;PMS5003;69154;52.076;5.110;2023-08-06T01:58:30;17;15;
72329;PMS5003;69154;52.076;5.110;2023-08-06T02:00:55;16;15;
72329;PMS5003;69154;52.076;5.110;2023-08-06T02:03:21;15;15;
72329;PMS5003;69154;52.076;5.110;2023-08-06T02:05:46;16;16;
72329;PMS5003;69154;52.076;5.110;2023-08-06T02:08:11;18;17;
72329;PMS5003;69154;52.076;5.110;2023-08-06T02:10:36;15;15;
72329;PMS5003;69154;52.076;5.110;2023-08-06T02:13:02;14;13;
72329;PMS5003;69154;52.076;5.110;2023-08-06T02:15:28;15;15;
72329;PMS5003;69154;52.076;5.110;2023-08-06T02:17:54;16;16;
72329;PMS5003;69154;52.076;5.110;2023-08-06T02:20:19;18;18;
72329;PMS5003;69154;52.076;5.110;2023-08-06T02:22:44;15;14;
72329;PMS5003;69154;52.076;5.110;2023-08-06T02:25:09;16;15;
72329;PMS5003;69154;52.076;5.110;2023-08-06T02:27:34;15;14;
72329;PMS5003;69154;52.076;5.110;2023-08-06T02:29:59;15;14;
72329;PMS5003;69154;52.076;5.110;2023-08-06T02:32:24;18;16;
72329;PMS5003;69154;52.076;5.110;2023-08-06T02:34:50;17;16;
72329;PMS5003;69154;52.076;5.110;2023-08-06T02:37:15;17;17;
72329;PMS5003;69154;52.076;5.110;2023-08-06T02:39:41;16;16;
72329;PMS5003;69154;52.076;5.110;2023-08-06T02:42:07;19;18;
72329;PMS5003;69154;52.076;5.110;2023-08-06T02:44:32;17;17;
72329;PMS5003;69154;52.076;5.110;2023-08-06T02:46:58;16;16;
72329;PMS5003;69154;52.076;5.110;2023-08-06T02:49:23;17;17;
72329;PMS5003;69154;52.076;5.110;2023-08-06T02:51:48;18;17;
72329;PMS5003;69154;52.076;5.110;2023-08-06T02:54:14;19;18;
72329;PMS5003;69154;52.076;5.110;2023-08-06T02:56:42;20;19;
72329;PMS5003;69154;52.076;5.110;2023-08-06T02:59:05;18;17;
72329;PMS5003;69154;52.076;5.110;2023-08-06T03:01:30;20;20;
72329;PMS5003;69154;52.076;5.110;2023-08-06T03:03:55;18;17;
72329;PMS5003;69154;52.076;5.110;2023-08-06T03:06:21;20;20;
72329;PMS5003;69154;52.076;5.110;2023-08-06T03:08:46;21;20;
72329;PMS5003;69154;52.076;5.110;2023-08-06T03:11:17;19;19;
72329;PMS5003;69154;52.076;5.110;2023-08-06T03:13:37;19;17;
72329;PMS5003;69154;52.076;5.110;2023-08-06T03:16:03;19;18;
72329;PMS5003;69154;52.076;5.110;2023-08-06T03:18:29;19;18;
72329;PMS5003;69154;52.076;5.110;2023-08-06T03:20:54;20;20;
72329;PMS5003;69154;52.076;5.110;2023-08-06T03:23:19;17;16;
72329;PMS5003;69154;52.076;5.110;2023-08-06T03:25:45;19;17;
72329;PMS5003;69154;52.076;5.110;2023-08-06T03:28:11;18;18;
72329;PMS5003;69154;52.076;5.110;2023-08-06T03:30:36;20;20;
72329;PMS5003;69154;52.076;5.110;2023-08-06T03:33:01;17;17;
72329;PMS5003;69154;52.076;5.110;2023-08-06T03:35:27;25;24;
72329;PMS5003;69154;52.076;5.110;2023-08-06T03:37:53;18;17;
72329;PMS5003;69154;52.076;5.110;2023-08-06T03:40:18;19;17;
72329;PMS5003;69154;52.076;5.110;2023-08-06T03:42:43;20;19;
72329;PMS5003;69154;52.076;5.110;2023-08-06T03:45:09;19;19;
72329;PMS5003;69154;52.076;5.110;2023-08-06T03:47:34;17;17;
72329;PMS5003;69154;52.076;5.110;2023-08-06T03:49:59;18;17;
72329;PMS5003;69154;52.076;5.110;2023-08-06T03:52:24;20;19;
72329;PMS5003;69154;52.076;5.110;2023-08-06T03:54:49;19;19;
72329;PMS5003;69154;52.076;5.110;2023-08-06T03:57:14;21;21;
72329;PMS5003;69154;52.076;5.110;2023-08-06T03:59:40;20;19;
72329;PMS5003;69154;52.076;5.110;2023-08-06T04:02:05;21;21;
72329;PMS5003;69154;52.076;5.110;2023-08-06T04:04:31;19;18;
72329;PMS5003;69154;52.076;5.110;2023-08-06T04:06:57;20;19;
72329;PMS5003;69154;52.076;5.110;2023-08-06T04:09:22;19;19;
72329;PMS5003;69154;52.076;5.110;2023-08-06T04:11:47;17;16;
72329;PMS5003;69154;52.076;5.110;2023-08-06T04:14:12;17;17;
72329;PMS5003;69154;52.076;5.110;2023-08-06T04:16:37;18;18;
72329;PMS5003;69154;52.076;5.110;2023-08-06T04:19:02;18;18;
72329;PMS5003;69154;52.076;5.110;2023-08-06T04:21:28;19;18;
72329;PMS5003;69154;52.076;5.110;2023-08-06T04:23:53;20;20;
72329;PMS5003;69154;52.076;5.110;2023-08-06T04:26:19;20;20;
72329;PMS5003;69154;52.076;5.110;2023-08-06T04:28:44;21;20;
72329;PMS5003;69154;52.076;5.110;2023-08-06T04:31:10;22;21;
72329;PMS5003;69154;52.076;5.110;2023-08-06T04:33:39;25;24;
72329;PMS5003;69154;52.076;5.110;2023-08-06T04:36:00;23;21;
72329;PMS5003;69154;52.076;5.110;2023-08-06T04:38:26;26;22;
72329;PMS5003;69154;52.076;5.110;2023-08-06T04:40:51;25;25;
72329;PMS5003;69154;52.076;5.110;2023-08-06T04:43:16;20;20;
72329;PMS5003;69154;52.076;5.110;2023-08-06T04:45:45;21;20;
72329;PMS5003;69154;52.076;5.110;2023-08-06T04:48:07;18;17;
72329;PMS5003;69154;52.076;5.110;2023-08-06T04:50:33;25;25;
72329;PMS5003;69154;52.076;5.110;2023-08-06T04:52:59;26;24;
72329;PMS5003;69154;52.076;5.110;2023-08-06T04:55:24;31;29;
72329;PMS5003;69154;52.076;5.110;2023-08-06T04:57:50;25;23;
72329;PMS5003;69154;52.076;5.110;2023-08-06T05:00:16;26;25;
72329;PMS5003;69154;52.076;5.110;2023-08-06T05:02:41;22;21;
72329;PMS5003;69154;52.076;5.110;2023-08-06T05:05:07;20;20;
72329;PMS5003;69154;52.076;5.110;2023-08-06T05:07:32;21;21;
72329;PMS5003;69154;52.076;5.110;2023-08-06T05:09:57;19;19;
72329;PMS5003;69154;52.076;5.110;2023-08-06T05:12:22;20;20;
72329;PMS5003;69154;52.076;5.110;2023-08-06T05:14:48;19;18;
72329;PMS5003;69154;52.076;5.110;2023-08-06T05:17:12;15;15;
72329;PMS5003;69154;52.076;5.110;2023-08-06T05:19:37;16;15;
72329;PMS5003;69154;52.076;5.110;2023-08-06T05:22:03;15;15;
72329;PMS5003;69154;52.076;5.110;2023-08-06T05:24:28;17;17;
72329;PMS5003;69154;52.076;5.110;2023-08-06T05:26:54;18;18;
72329;PMS5003;69154;52.076;5.110;2023-08-06T05:29:19;14;14;
72329;PMS5003;69154;52.076;5.110;2023-08-06T05:31:44;16;16;
72329;PMS5003;69154;52.076;5.110;2023-08-06T05:34:10;14;14;
72329;PMS5003;69154;52.076;5.110;2023-08-06T05:36:35;17;17;
72329;PMS5003;69154;52.076;5.110;2023-08-06T05:38:59;17;17;
72329;PMS5003;69154;52.076;5.110;2023-08-06T05:41:25;18;18;
72329;PMS5003;69154;52.076;5.110;2023-08-06T05:43:50;19;18;
72329;PMS5003;69154;52.076;5.110;2023-08-06T05:46:15;23;20;
72329;PMS5003;69154;52.076;5.110;2023-08-06T05:48:40;21;21;
72329;PMS5003;69154;52.076;5.110;2023-08-06T05:51:06;19;19;
72329;PMS5003;69154;52.076;5.110;2023-08-06T05:53:31;16;15;
72329;PMS5003;69154;52.076;5.110;2023-08-06T05:55:57;10;10;
72329;PMS5003;69154;52.076;5.110;2023-08-06T05:58:22;10;9;
72329;PMS5003;69154;52.076;5.110;2023-08-06T06:00:47;7;7;
72329;PMS5003;69154;52.076;5.110;2023-08-06T06:03:12;5;5;
72329;PMS5003;69154;52.076;5.110;2023-08-06T06:05:37;7;7;
72329;PMS5003;69154;52.076;5.110;2023-08-06T06:08:03;6;5;
72329;PMS5003;69154;52.076;5.110;2023-08-06T06:10:32;7;7;
72329;PMS5003;69154;52.076;5.110;2023-08-06T06:12:52;8;6;
72329;PMS5003;69154;52.076;5.110;2023-08-06T06:15:17;6;6;
72329;PMS5003;69154;52.076;5.110;2023-08-06T06:17:43;5;4;
72329;PMS5003;69154;52.076;5.110;2023-08-06T06:20:08;6;6;
72329;PMS5003;69154;52.076;5.110;2023-08-06T06:22:33;8;7;
72329;PMS5003;69154;52.076;5.110;2023-08-06T06:24:58;7;7;
72329;PMS5003;69154;52.076;5.110;2023-08-06T06:27:23;6;6;
72329;PMS5003;69154;52.076;5.110;2023-08-06T06:29:48;8;7;
72329;PMS5003;69154;52.076;5.110;2023-08-06T06:32:13;8;8;
72329;PMS5003;69154;52.076;5.110;2023-08-06T06:34:38;8;7;
72329;PMS5003;69154;52.076;5.110;2023-08-06T06:37:03;6;6;
72329;PMS5003;69154;52.076;5.110;2023-08-06T06:39:28;7;7;
72329;PMS5003;69154;52.076;5.110;2023-08-06T06:41:53;6;6;
72329;PMS5003;69154;52.076;5.110;2023-08-06T06:44:19;8;8;
72329;PMS5003;69154;52.076;5.110;2023-08-06T06:46:43;9;8;
72329;PMS5003;69154;52.076;5.110;2023-08-06T06:49:09;8;8;
72329;PMS5003;69154;52.076;5.110;2023-08-06T06:51:34;8;8;
72329;PMS5003;69154;52.076;5.110;2023-08-06T06:53:59;8;7;
72329;PMS5003;69154;52.076;5.110;2023-08-06T06:56:24;12;11;
72329;PMS5003;69154;52.076;5.110;2023-08-06T06:58:49;9;9;
72329;PMS5003;69154;52.076;5.110;2023-08-06T07:01:14;11;11;
72329;PMS5003;69154;52.076;5.110;2023-08-06T07:03:39;11;11;
72329;PMS5003;69154;52.076;5.110;2023-08-06T07:06:04;13;12;
72329;PMS5003;69154;52.076;5.110;2023-08-06T07:08:30;14;13;
72329;PMS5003;69154;52.076;5.110;2023-08-06T07:10:59;14;13;
72329;PMS5003;69154;52.076;5.110;2023-08-06T07:13:20;14;14;
72329;PMS5003;69154;52.076;5.110;2023-08-06T07:15:46;13;13;
72329;PMS5003;69154;52.076;5.110;2023-08-06T07:18:11;11;11;
72329;PMS5003;69154;52.076;5.110;2023-08-06T07:20:36;16;16;
72329;PMS5003;69154;52.076;5.110;2023-08-06T07:23:03;13;13;
72329;PMS5003;69154;52.076;5.110;2023-08-06T07:25:27;12;12;
72329;PMS5003;69154;52.076;5.110;2023-08-06T07:27:53;11;11;
72329;PMS5003;69154;52.076;5.110;2023-08-06T07:30:18;14;14;
72329;PMS5003;69154;52.076;5.110;2023-08-06T07:32:42;10;9;
72329;PMS5003;69154;52.076;5.110;2023-08-06T07:35:07;9;9;
72329;PMS5003;69154;52.076;5.110;2023-08-06T07:37:32;9;9;
72329;PMS5003;69154;52.076;5.110;2023-08-06T07:39:57;11;11;
72329;PMS5003;69154;52.076;5.110;2023-08-06T07:42:22;12;10;
72329;PMS5003;69154;52.076;5.110;2023-08-06T07:44:50;10;10;
72329;PMS5003;69154;52.076;5.110;2023-08-06T07:47:12;12;12;
72329;PMS5003;69154;52.076;5.110;2023-08-06T07:49:37;12;10;
72329;PMS5003;69154;52.076;5.110;2023-08-06T07:52:03;13;13;
72329;PMS5003;69154;52.076;5.110;2023-08-06T07:54:28;13;12;
72329;PMS5003;69154;52.076;5.110;2023-08-06T07:56:53;13;13;
72329;PMS5003;69154;52.076;5.110;2023-08-06T07:59:18;13;13;
72329;PMS5003;69154;52.076;5.110;2023-08-06T08:01:43;16;13;
72329;PMS5003;69154;52.076;5.110;2023-08-06T08:04:08;16;16;
72329;PMS5003;69154;52.076;5.110;2023-08-06T08:06:34;13;13;
72329;PMS5003;69154;52.076;5.110;2023-08-06T08:08:59;15;14;
72329;PMS5003;69154;52.076;5.110;2023-08-06T08:11:25;16;16;
72329;PMS5003;69154;52.076;5.110;2023-08-06T08:13:49;17;16;
72329;PMS5003;69154;52.076;5.110;2023-08-06T08:16:14;16;16;
72329;PMS5003;69154;52.076;5.110;2023-08-06T08:18:40;18;16;
72329;PMS5003;69154;52.076;5.110;2023-08-06T08:21:05;14;14;
72329;PMS5003;69154;52.076;5.110;2023-08-06T08:23:30;15;15;
72329;PMS5003;69154;52.076;5.110;2023-08-06T08:25:55;15;14;
72329;PMS5003;69154;52.076;5.110;2023-08-06T08:28:21;17;16;
72329;PMS5003;69154;52.076;5.110;2023-08-06T08:30:46;14;14;
72329;PMS5003;69154;52.076;5.110;2023-08-06T08:33:11;18;18;
72329;PMS5003;69154;52.076;5.110;2023-08-06T08:35:36;14;14;
72329;PMS5003;69154;52.076;5.110;2023-08-06T08:38:02;15;15;
72329;PMS5003;69154;52.076;5.110;2023-08-06T08:40:31;14;11;
72329;PMS5003;69154;52.076;5.110;2023-08-06T08:42:52;15;15;
72329;PMS5003;69154;52.076;5.110;2023-08-06T08:45:18;13;10;
72329;PMS5003;69154;52.076;5.110;2023-08-06T08:47:43;10;10;
72329;PMS5003;69154;52.076;5.110;2023-08-06T08:50:09;13;12;
72329;PMS5003;69154;52.076;5.110;2023-08-06T08:52:34;13;11;
72329;PMS5003;69154;52.076;5.110;2023-08-06T08:54:59;12;9;
72329;PMS5003;69154;52.076;5.110;2023-08-06T08:57:24;12;10;
72329;PMS5003;69154;52.076;5.110;2023-08-06T08:59:50;13;13;
72329;PMS5003;69154;52.076;5.110;2023-08-06T09:02:14;12;12;
72329;PMS5003;69154;52.076;5.110;2023-08-06T09:04:40;12;12;
72329;PMS5003;69154;52.076;5.110;2023-08-06T09:07:05;11;11;
72329;PMS5003;69154;52.076;5.110;2023-08-06T09:09:31;10;9;
72329;PMS5003;69154;52.076;5.110;2023-08-06T09:11:57;10;9;
72329;PMS5003;69154;52.076;5.110;2023-08-06T09:14:21;10;9;
72329;PMS5003;69154;52.076;5.110;2023-08-06T09:16:47;10;10;
72329;PMS5003;69154;52.076;5.110;2023-08-06T09:19:11;12;11;
72329;PMS5003;69154;52.076;5.110;2023-08-06T09:21:37;9;8;
72329;PMS5003;69154;52.076;5.110;2023-08-06T09:24:03;7;7;
72329;PMS5003;69154;52.076;5.110;2023-08-06T09:26:32;9;9;
72329;PMS5003;69154;52.076;5.110;2023-08-06T09:28:52;8;8;
72329;PMS5003;69154;52.076;5.110;2023-08-06T09:31:16;8;7;
72329;PMS5003;69154;52.076;5.110;2023-08-06T09:33:41;9;8;
72329;PMS5003;69154;52.076;5.110;2023-08-06T09:36:07;9;8;
72329;PMS5003;69154;52.076;5.110;2023-08-06T09:38:32;8;8;
72329;PMS5003;69154;52.076;5.110;2023-08-06T09:40:57;11;9;
72329;PMS5003;69154;52.076;5.110;2023-08-06T09:43:22;8;8;
72329;PMS5003;69154;52.076;5.110;2023-08-06T09:45:47;9;9;
72329;PMS5003;69154;52.076;5.110;2023-08-06T09:48:12;9;9;
72329;PMS5003;69154;52.076;5.110;2023-08-06T09:50:37;6;6;
72329;PMS5003;69154;52.076;5.110;2023-08-06T09:53:03;9;9;
72329;PMS5003;69154;52.076;5.110;2023-08-06T09:55:28;9;8;
72329;PMS5003;69154;52.076;5.110;2023-08-06T09:57:53;9;8;
72329;PMS5003;69154;52.076;5.110;2023-08-06T10:00:18;12;10;
72329;PMS5003;69154;52.076;5.110;2023-08-06T10:02:43;9;9;
72329;PMS5003;69154;52.076;5.110;2023-08-06T10:05:09;13;12;
72329;PMS5003;69154;52.076;5.110;2023-08-06T10:07:34;9;8;
72329;PMS5003;69154;52.076;5.110;2023-08-06T10:09:58;8;8;
72329;PMS5003;69154;52.076;5.110;2023-08-06T10:12:23;7;7;
72329;PMS5003;69154;52.076;5.110;2023-08-06T10:14:49;8;8;
72329;PMS5003;69154;52.076;5.110;2023-08-06T10:17:15;7;6;
72329;PMS5003;69154;52.076;5.110;2023-08-06T10:19:40;7;5;
72329;PMS5003;69154;52.076;5.110;2023-08-06T10:22:08;6;6;
72329;PMS5003;69154;52.076;5.110;2023-08-06T10:24:37;7;6;
72329;PMS5003;69154;52.076;5.110;2023-08-06T10:26:56;4;4;
72329;PMS5003;69154;52.076;5.110;2023-08-06T10:29:35;5;5;
72329;PMS5003;69154;52.076;5.110;2023-08-06T10:32:00;5;5;
72329;PMS5003;69154;52.076;5.110;2023-08-06T10:34:10;4;4;
72329;PMS5003;69154;52.076;5.110;2023-08-06T10:36:35;4;3;
72329;PMS5003;69154;52.076;5.110;2023-08-06T10:39:00;6;5;
72329;PMS5003;69154;52.076;5.110;2023-08-06T10:41:27;4;4;
72329;PMS5003;69154;52.076;5.110;2023-08-06T10:43:50;3;3;
72329;PMS5003;69154;52.076;5.110;2023-08-06T10:46:25;2;2;
72329;PMS5003;69154;52.076;5.110;2023-08-06T10:48:44;2;2;
72329;PMS5003;69154;52.076;5.110;2023-08-06T10:51:10;3;3;
72329;PMS5003;69154;52.076;5.110;2023-08-06T10:53:41;4;4;
72329;PMS5003;69154;52.076;5.110;2023-08-06T10:55:59;3;3;
72329;PMS5003;69154;52.076;5.110;2023-08-06T10:58:25;4;4;
72329;PMS5003;69154;52.076;5.110;2023-08-06T11:00:50;5;4;
72329;PMS5003;69154;52.076;5.110;2023-08-06T11:03:16;4;4;
72329;PMS5003;69154;52.076;5.110;2023-08-06T11:05:42;3;3;
72329;PMS5003;69154;52.076;5.110;2023-08-06T11:08:08;3;3;
72329;PMS5003;69154;52.076;5.110;2023-08-06T11:10:33;4;4;
72329;PMS5003;69154;52.076;5.110;2023-08-06T11:13:00;2;2;
72329;PMS5003;69154;52.076;5.110;2023-08-06T11:15:24;4;4;
72329;PMS5003;69154;52.076;5.110;2023-08-06T11:17:49;4;3;
72329;PMS5003;69154;52.076;5.110;2023-08-06T11:20:14;6;4;
72329;PMS5003;69154;52.076;5.110;2023-08-06T11:22:39;4;3;
72329;PMS5003;69154;52.076;5.110;2023-08-06T11:25:05;2;2;
72329;PMS5003;69154;52.076;5.110;2023-08-06T11:27:29;4;4;
72329;PMS5003;69154;52.076;5.110;2023-08-06T11:29:55;5;4;
72329;PMS5003;69154;52.076;5.110;2023-08-06T11:32:20;3;3;
72329;PMS5003;69154;52.076;5.110;2023-08-06T11:34:45;4;4;
72329;PMS5003;69154;52.076;5.110;2023-08-06T11:37:09;2;2;
72329;PMS5003;69154;52.076;5.110;2023-08-06T11:39:34;2;2;
72329;PMS5003;69154;52.076;5.110;2023-08-06T11:41:59;2;2;
72329;PMS5003;69154;52.076;5.110;2023-08-06T11:44:25;4;3;
72329;PMS5003;69154;52.076;5.110;2023-08-06T11:46:49;3;3;
72329;PMS5003;69154;52.076;5.110;2023-08-06T11:49:14;2;2;
72329;PMS5003;69154;52.076;5.110;2023-08-06T11:51:40;3;3;
72329;PMS5003;69154;52.076;5.110;2023-08-06T11:54:05;4;3;
72329;PMS5003;69154;52.076;5.110;2023-08-06T11:56:29;5;4;
72329;PMS5003;69154;52.076;5.110;2023-08-06T11:58:54;5;5;
72329;PMS5003;69154;52.076;5.110;2023-08-06T12:01:20;3;3;
72329;PMS5003;69154;52.076;5.110;2023-08-06T12:03:46;3;2;
72329;PMS5003;69154;52.076;5.110;2023-08-06T12:06:12;3;3;
72329;PMS5003;69154;52.076;5.110;2023-08-06T12:08:38;2;2;
72329;PMS5003;69154;52.076;5.110;2023-08-06T12:11:04;4;4;
72329;PMS5003;69154;52.076;5.110;2023-08-06T12:13:29;2;2;
72329;PMS5003;69154;52.076;5.110;2023-08-06T12:15:55;3;3;
72329;PMS5003;69154;52.076;5.110;2023-08-06T12:18:21;3;3;
72329;PMS5003;69154;52.076;5.110;2023-08-06T12:20:47;4;4;
72329;PMS5003;69154;52.076;5.110;2023-08-06T12:23:13;4;4;
72329;PMS5003;69154;52.076;5.110;2023-08-06T12:25:39;1;1;
72329;PMS5003;69154;52.076;5.110;2023-08-06T12:28:04;3;3;
72329;PMS5003;69154;52.076;5.110;2023-08-06T12:30:30;3;3;
72329;PMS5003;69154;52.076;5.110;2023-08-06T12:32:56;3;3;
72329;PMS5003;69154;52.076;5.110;2023-08-06T12:35:22;3;2;
72329;PMS5003;69154;52.076;5.110;2023-08-06T12:37:48;2;2;
72329;PMS5003;69154;52.076;5.110;2023-08-06T12:40:14;2;2;
72329;PMS5003;69154;52.076;5.110;2023-08-06T12:42:40;2;2;
72329;PMS5003;69154;52.076;5.110;2023-08-06T12:45:06;1;1;
72329;PMS5003;69154;52.076;5.110;2023-08-06T12:47:32;2;1;
72329;PMS5003;69154;52.076;5.110;2023-08-06T12:49:57;3;3;
72329;PMS5003;69154;52.076;5.110;2023-08-06T12:52:23;2;2;
72329;PMS5003;69154;52.076;5.110;2023-08-06T12:54:49;2;2;
72329;PMS5003;69154;52.076;5.110;2023-08-06T12:57:15;3;3;
72329;PMS5003;69154;52.076;5.110;2023-08-06T12:59:40;3;3;
72329;PMS5003;69154;52.076;5.110;2023-08-06T13:02:06;2;2;
72329;PMS5003;69154;52.076;5.110;2023-08-06T13:04:32;2;2;
72329;PMS5003;69154;52.076;5.110;2023-08-06T13:06:58;2;2;
72329;PMS5003;69154;52.076;5.110;2023-08-06T13:09:24;3;3;
72329;PMS5003;69154;52.076;5.110;2023-08-06T13:11:50;3;3;
72329;PMS5003;69154;52.076;5.110;2023-08-06T13:14:16;3;3;
72329;PMS5003;69154;52.076;5.110;2023-08-06T13:16:42;2;2;
72329;PMS5003;69154;52.076;5.110;2023-08-06T13:19:08;2;2;
72329;PMS5003;69154;52.076;5.110;2023-08-06T13:21:34;2;2;
72329;PMS5003;69154;52.076;5.110;2023-08-06T13:23:59;2;2;
72329;PMS5003;69154;52.076;5.110;2023-08-06T13:26:25;3;3;
72329;PMS5003;69154;52.076;5.110;2023-08-06T13:28:51;2;2;
72329;PMS5003;69154;52.076;5.110;2023-08-06T13:31:16;3;2;
72329;PMS5003;69154;52.076;5.110;2023-08-06T13:33:42;2;2;
72329;PMS5003;69154;52.076;5.110;2023-08-06T13:36:09;3;3;
72329;PMS5003;69154;52.076;5.110;2023-08-06T13:38:34;3;3;
72329;PMS5003;69154;52.076;5.110;2023-08-06T13:41:00;3;3;
72329;PMS5003;69154;52.076;5.110;2023-08-06T13:43:26;2;2;
72329;PMS5003;69154;52.076;5.110;2023-08-06T13:45:52;2;2;
72329;PMS5003;69154;52.076;5.110;2023-08-06T13:48:17;3;2;
72329;PMS5003;69154;52.076;5.110;2023-08-06T13:50:43;2;2;
72329;PMS5003;69154;52.076;5.110;2023-08-06T13:53:09;3;3;
72329;PMS5003;69154;52.076;5.110;2023-08-06T13:55:34;3;3;
72329;PMS5003;69154;52.076;5.110;2023-08-06T13:58:00;4;4;
72329;PMS5003;69154;52.076;5.110;2023-08-06T14:00:25;3;3;
72329;PMS5003;69154;52.076;5.110;2023-08-06T14:02:50;5;4;
72329;PMS5003;69154;52.076;5.110;2023-08-06T14:05:16;3;3;
72329;PMS5003;69154;52.076;5.110;2023-08-06T14:07:42;4;4;
72329;PMS5003;69154;52.076;5.110;2023-08-06T14:10:08;4;3;
72329;PMS5003;69154;52.076;5.110;2023-08-06T14:12:34;4;4;
72329;PMS5003;69154;52.076;5.110;2023-08-06T14:14:59;3;3;
72329;PMS5003;69154;52.076;5.110;2023-08-06T14:17:30;2;2;
72329;PMS5003;69154;52.076;5.110;2023-08-06T14:19:50;3;3;
72329;PMS5003;69154;52.076;5.110;2023-08-06T14:22:15;3;2;
72329;PMS5003;69154;52.076;5.110;2023-08-06T14:24:42;3;2;
72329;PMS5003;69154;52.076;5.110;2023-08-06T14:27:05;6;4;
72329;PMS5003;69154;52.076;5.110;2023-08-06T14:29:30;3;3;
72329;PMS5003;69154;52.076;5.110;2023-08-06T14:31:55;2;2;
72329;PMS5003;69154;52.076;5.110;2023-08-06T14:34:20;4;4;
72329;PMS5003;69154;52.076;5.110;2023-08-06T14:36:45;2;2;
72329;PMS5003;69154;52.076;5.110;2023-08-06T14:39:10;5;5;
72329;PMS5003;69154;52.076;5.110;2023-08-06T14:41:35;2;2;
72329;PMS5003;69154;52.076;5.110;2023-08-06T14:44:00;2;2;
72329;PMS5003;69154;52.076;5.110;2023-08-06T14:46:25;3;3;
72329;PMS5003;69154;52.076;5.110;2023-08-06T14:48:50;0;0;
72329;PMS5003;69154;52.076;5.110;2023-08-06T14:51:15;1;1;
72329;PMS5003;69154;52.076;5.110;2023-08-06T14:53:41;2;2;
72329;PMS5003;69154;52.076;5.110;2023-08-06T14:56:06;1;1;
72329;PMS5003;69154;52.076;5.110;2023-08-06T14:58:31;0;0;
72329;PMS5003;69154;52.076;5.110;2023-08-06T15:00:56;1;1;
72329;PMS5003;69154;52.076;5.110;2023-08-06T15:03:22;1;1;
72329;PMS5003;69154;52.076;5.110;2023-08-06T15:05:47;0;0;
72329;PMS5003;69154;52.076;5.110;2023-08-06T15:08:12;1;1;
72329;PMS5003;69154;52.076;5.110;2023-08-06T15:10:37;2;1;
72329;PMS5003;69154;52.076;5.110;2023-08-06T15:13:02;1;1;
72329;PMS5003;69154;52.076;5.110;2023-08-06T15:15:27;0;0;
72329;PMS5003;69154;52.076;5.110;2023-08-06T15:17:52;2;1;
72329;PMS5003;69154;52.076;5.110;2023-08-06T15:20:17;1;1;
72329;PMS5003;69154;52.076;5.110;2023-08-06T15:22:42;2;2;
72329;PMS5003;69154;52.076;5.110;2023-08-06T15:25:07;2;2;
72329;PMS5003;69154;52.076;5.110;2023-08-06T15:27:33;1;0;
72329;PMS5003;69154;52.076;5.110;2023-08-06T15:29:58;2;1;
72329;PMS5003;69154;52.076;5.110;2023-08-06T15:32:23;1;1;
72329;PMS5003;69154;52.076;5.110;2023-08-06T15:34:48;1;1;
72329;PMS5003;69154;52.076;5.110;2023-08-06T15:37:13;2;1;
72329;PMS5003;69154;52.076;5.110;2023-08-06T15:39:38;2;1;
72329;PMS5003;69154;52.076;5.110;2023-08-06T15:42:03;1;1;
72329;PMS5003;69154;52.076;5.110;2023-08-06T15:44:29;1;1;
72329;PMS5003;69154;52.076;5.110;2023-08-06T15:46:53;2;2;
72329;PMS5003;69154;52.076;5.110;2023-08-06T15:49:18;3;2;
72329;PMS5003;69154;52.076;5.110;2023-08-06T15:51:43;2;1;
72329;PMS5003;69154;52.076;5.110;2023-08-06T15:54:08;2;2;
72329;PMS5003;69154;52.076;5.110;2023-08-06T15:56:33;1;1;
72329;PMS5003;69154;52.076;5.110;2023-08-06T15:59:07;0;0;
72329;PMS5003;69154;52.076;5.110;2023-08-06T16:01:24;1;1;
72329;PMS5003;69154;52.076;5.110;2023-08-06T16:03:48;2;2;
72329;PMS5003;69154;52.076;5.110;2023-08-06T16:06:13;1;1;
72329;PMS5003;69154;52.076;5.110;2023-08-06T16:08:39;4;2;
72329;PMS5003;69154;52.076;5.110;2023-08-06T16:11:04;0;0;
72329;PMS5003;69154;52.076;5.110;2023-08-06T16:13:29;2;1;
72329;PMS5003;69154;52.076;5.110;2023-08-06T16:15:54;1;1;
72329;PMS5003;69154;52.076;5.110;2023-08-06T16:18:19;2;1;
72329;PMS5003;69154;52.076;5.110;2023-08-06T16:20:44;1;1;